EGVN

RAF Brize Norton Airport

Brize Norton, United Kingdom
METAR EGVN 190550Z 13009KT 5000 -DZ FEW004 BKN006 04/03 Q1007 YLO1 TEMPO 3000 -RADZ BKN004 YLO2
Observed Flight Rules
Jan-19 @ 05:50 UTC (28 minutes ago) Instrument Flight Rules
Wind Visibility Clouds Conditions
130° at 9 knots 5,005 meters
  • Few at 400' AGL
  • Broken at 600' AGL
  • Light Drizzle
Temperatures Readings
Current 4°C / 39°F
Dewpoint 3°C / 37°F
Humidity 93%
Altimeter 29.73" Hg
Pressure 1006.92 hPa
Elevation 88
METAR EGVN 190550Z 13009KT 5000 -DZ FEW004 BKN006 04/03 Q1007 YLO1 TEMPO 3000 -RADZ BKN004 YLO2
Observed Flight Rules
Jan-19 @ 05:50 UTC
(28 minutes ago)
IFR
Wind Visibility
130° at 9 knots 5,005 meters
Clouds
  • Few at 400' AGL
  • Broken at 600' AGL
Conditions
  • Light Drizzle
Temperature Dewpoint
4°C / 39°F 3°C / 37°F
Humidity Altimeter Pressure
93% 29.73" Hg 1006.92 hPa